Davenport, IA

11:37 AM CST en Noviembre 21, 2014 (GMT -0600)
Davenport Municipal | Change Station
CLOSE
Current Station
Aeropuerto
Location: Davenport,
Altura: 755 ft
Estaciones meteorológicas cercanas
Aviso en curso: Freezing Rain Advisory Aviso activo: Record Report

Alt 755 ft 41.61 °N, 90.59 °W | Updated 45 minutes ago

Despejado
Despejado
26 ° F
Sensación térmica 14 ° F
N
16
Viento Variable Viento desde SSE

Hoy
Alta -- | Baja -- ° F
--% Posibilidad de precipitaciones
Ayer
Alta -- | Baja -- ° F
Precip. -- pul
6:58 AM 4:37 PM
Creciente menguante, 1% visible
Presión 30.43 pul
Visibilidad 10.0 Millas
Nubes Despejado
Vientos helados 14 ° F
Punto de rocío 6 ° F
Humedad 43%
Precipitaciones 0.00 pul
Espesor de la nieve No disponible.
UV 3 de una escala de 12
Polen .10 de una escala de 12
Calidad del aire No disponible.
Flu Activity No disponible.
METAR KDVN 211652Z AUTO 15014KT 10SM CLR M03/M14 A3039 RMK AO2 SLP304 T10331144

More Conditions Fewer Conditions

Presión 30.43 pul
Visibilidad 10.0 Millas
Nubes Despejado
Vientos helados 14 ° F
Punto de rocío 6 ° F
Humedad 43%
Precipitaciones 0.00 pul
Espesor de la nieve No disponible.
UV 3 de una escala de 12
Polen .10 de una escala de 12
Calidad del aire No disponible.
Flu Activity No disponible.
METAR KDVN 211652Z AUTO 15014KT 10SM CLR M03/M14 A3039 RMK AO2 SLP304 T10331144

More Conditions Fewer Conditions

10-Day Weather Forecast

Almanac

Astronomía

Nov. 21, 2014 Salida Puesta
Hora real
Crepúsculo civil
Crepúsculo náutico
Crepúsculo astronómico
Luna
Horas de luz
Horas de luz
Tomorrow will be .
, % of the Moon is Illuminated

Extremos de hoy

Máximos del estado Bajos del estado

Community

WunderPhotos

Upload Photos

1,772,692 ¡fotos cargadas!

WunderBlogs® & News

Nearby

Calidad del aire

  Calidad del aire Índice AQ Contaminante
Not available.

Grosos de nieve

Estación Profundido Altura

Actividad de terremotos

Ciudad Distance Mag. Tiempo y dato
Magnitud mínima muestra es 2,5.

Temperaturas de aguas costeras

Lugar Temperatura

Estaciones meteorológicas cercanas